Time;durP1;ratioP1;P1;durP2;ratioP2;P2;SDS_P1;SDS_P2;PMS_P1;PMS_P2;Temp;Humidity;BMP_temperature;BMP_pressure;BME280_temperature;BME280_humidity;BME280_pressure;Samples;Min_cycle;Max_cycle;Signal;HPM_P1;HPM_P2
2023/12/08 00:00:48;;;;;;;25.83;15.02;;;;;;;0.27;71.57;96241.72;5020164;28;20124;-83
2023/12/08 00:03:16;;;;;;;25.75;14.35;;;;;;;0.27;71.45;96236.59;5019394;28;20061;-82
2023/12/08 00:05:44;;;;;;;22.45;14.10;;;;;;;0.27;71.45;96228.09;5020268;28;20105;-83
2023/12/08 00:08:11;;;;;;;26.10;16.00;;;;;;;0.26;71.15;96223.88;5019597;28;20077;-82
2023/12/08 00:10:39;;;;;;;23.88;14.25;;;;;;;0.22;71.48;96218.22;5019511;28;20407;-83
2023/12/08 00:13:08;;;;;;;25.30;14.52;;;;;;;0.19;71.12;96211.56;5019630;28;20105;-83
2023/12/08 00:15:36;;;;;;;23.52;15.10;;;;;;;0.17;71.23;96210.06;5019844;28;20133;-83
2023/12/08 00:18:03;;;;;;;24.55;15.98;;;;;;;0.18;72.08;96209.13;5019209;28;20057;-82
2023/12/08 00:20:31;;;;;;;28.95;17.05;;;;;;;0.16;71.75;96200.75;5020824;28;20061;-82
2023/12/08 00:22:58;;;;;;;29.52;16.58;;;;;;;0.12;71.28;96168.59;5019573;28;20058;-83
2023/12/08 00:25:26;;;;;;;29.60;16.80;;;;;;;0.10;71.90;96178.16;5018115;28;20042;-83
2023/12/08 00:27:54;;;;;;;29.05;16.85;;;;;;;0.11;72.59;96177.22;5018682;28;20053;-83
2023/12/08 00:30:24;;;;;;;29.92;16.30;;;;;;;0.13;72.66;96172.78;5019328;28;20185;-83
2023/12/08 00:32:51;;;;;;;24.90;15.23;;;;;;;0.13;72.51;96165.09;5018944;28;20054;-83
2023/12/08 00:35:19;;;;;;;31.00;17.25;;;;;;;0.12;72.42;96145.53;5018564;28;20120;-82
2023/12/08 00:37:47;;;;;;;25.45;17.30;;;;;;;0.12;73.27;96148.09;5018322;28;20058;-82
2023/12/08 00:40:16;;;;;;;24.42;15.85;;;;;;;0.11;73.84;96139.59;5018453;28;20053;-83
2023/12/08 00:42:44;;;;;;;27.45;16.33;;;;;;;0.14;73.54;96133.38;5018191;28;20108;-82
2023/12/08 00:45:12;;;;;;;29.90;17.95;;;;;;;0.17;72.96;96133.13;5017846;28;20050;-83
2023/12/08 00:47:40;;;;;;;28.88;17.55;;;;;;;0.17;73.90;96138.25;5017737;28;20057;-82
2023/12/08 00:50:09;;;;;;;27.83;16.05;;;;;;;0.20;73.30;96138.00;5018796;28;20045;-82
2023/12/08 00:52:36;;;;;;;26.33;16.55;;;;;;;0.20;73.42;96133.69;5018092;28;20049;-83
2023/12/08 00:55:04;;;;;;;27.58;16.15;;;;;;;0.18;73.11;96134.75;5018083;28;20208;-82
2023/12/08 00:57:32;;;;;;;29.95;16.10;;;;;;;0.17;73.50;96130.53;5017654;28;20569;-83
2023/12/08 01:00:00;;;;;;;23.10;14.98;;;;;;;0.16;73.10;96121.25;5017900;28;20050;-82
2023/12/08 01:02:27;;;;;;;28.90;16.40;;;;;;;0.14;72.67;96118.00;5017862;28;20085;-82
2023/12/08 01:04:56;;;;;;;26.27;15.85;;;;;;;0.11;72.91;96108.81;5017748;28;20060;-82
2023/12/08 01:07:24;;;;;;;25.88;15.80;;;;;;;0.10;72.37;96116.63;5016722;28;20060;-82
2023/12/08 01:09:52;;;;;;;29.17;17.10;;;;;;;0.11;73.06;96119.06;5017068;28;20092;-82
2023/12/08 01:12:20;;;;;;;26.27;16.45;;;;;;;0.12;73.58;96120.69;5016940;28;20046;-83
2023/12/08 01:14:47;;;;;;;26.75;16.17;;;;;;;0.14;73.22;96116.22;5016951;28;20050;-82
2023/12/08 01:17:15;;;;;;;24.73;15.23;;;;;;;0.12;72.34;96109.63;5017333;28;20132;-82
2023/12/08 01:19:42;;;;;;;24.98;15.30;;;;;;;0.08;72.32;96103.91;5017695;28;20472;-83
2023/12/08 01:22:11;;;;;;;27.17;17.48;;;;;;;0.05;73.08;96103.38;5018160;28;20100;-82
2023/12/08 01:24:39;;;;;;;23.38;15.43;;;;;;;0.08;73.51;96126.19;5016969;28;20054;-83
2023/12/08 01:27:06;;;;;;;27.50;17.35;;;;;;;0.10;73.59;96148.19;5016672;28;20076;-83
2023/12/08 01:29:34;;;;;;;27.35;16.52;;;;;;;0.14;74.32;96130.81;5016847;28;20068;-83
2023/12/08 01:32:02;;;;;;;25.40;15.65;;;;;;;0.15;74.56;96135.81;5017458;28;20050;-83
2023/12/08 01:34:30;;;;;;;27.90;17.17;;;;;;;0.17;74.04;96122.84;5017262;28;20077;-83
2023/12/08 01:36:57;;;;;;;25.05;16.02;;;;;;;0.13;73.49;96126.63;5016546;28;20445;-83
2023/12/08 01:39:27;;;;;;;24.95;16.40;;;;;;;0.09;73.85;96120.94;5016278;28;20076;-82
2023/12/08 01:41:54;;;;;;;26.02;16.13;;;;;;;0.06;73.51;96130.63;5016946;28;20050;-82
2023/12/08 01:44:22;;;;;;;27.80;17.52;;;;;;;0.02;73.09;96131.84;5016960;28;20049;-83
2023/12/08 01:46:50;;;;;;;25.73;15.60;;;;;;;-0.02;73.40;96129.53;5017417;28;20089;-83
2023/12/08 01:49:18;;;;;;;28.27;17.75;;;;;;;-0.04;73.89;96126.28;5017405;28;20107;-83
2023/12/08 01:51:47;;;;;;;28.17;16.58;;;;;;;-0.07;74.41;96098.31;5017500;28;20480;-82
2023/12/08 01:54:16;;;;;;;27.85;16.45;;;;;;;-0.13;73.27;96098.00;5019098;28;20053;-82
2023/12/08 01:56:45;;;;;;;35.67;17.65;;;;;;;-0.21;74.06;96089.22;5020085;28;20046;-82
2023/12/08 01:59:13;;;;;;;25.40;15.98;;;;;;;-0.23;73.73;96090.28;5019910;28;20053;-81
2023/12/08 02:01:41;;;;;;;27.13;16.58;;;;;;;-0.26;73.47;96093.13;5015870;28;20429;-82
2023/12/08 02:04:09;;;;;;;25.98;16.13;;;;;;;-0.30;73.33;96092.56;5016556;28;20080;-81
2023/12/08 02:06:36;;;;;;;27.13;16.13;;;;;;;-0.33;73.20;96097.94;5014899;28;20369;-83
2023/12/08 02:09:04;;;;;;;26.23;16.25;;;;;;;-0.30;73.84;96131.00;5015008;28;20116;-83
2023/12/08 02:11:32;;;;;;;23.65;14.98;;;;;;;-0.23;74.00;96137.25;5015302;28;20054;-83
2023/12/08 02:14:01;;;;;;;29.30;16.65;;;;;;;-0.19;73.75;96119.88;5016292;28;20137;-82
2023/12/08 02:16:34;;;;;;;25.05;14.40;;;;;;;-0.17;73.15;96109.50;5020579;28;20042;-82
2023/12/08 02:19:04;;;;;;;23.92;14.30;;;;;;;-0.16;73.32;96096.53;5016683;28;20108;-83
2023/12/08 02:21:32;;;;;;;29.65;16.80;;;;;;;-0.14;73.33;96083.59;5018091;28;20572;-83
2023/12/08 02:24:01;;;;;;;28.08;16.33;;;;;;;-0.15;73.24;96061.44;5016377;28;20054;-82
2023/12/08 02:26:29;;;;;;;24.50;16.08;;;;;;;-0.14;73.11;96052.81;5016619;28;20050;-82
2023/12/08 02:28:57;;;;;;;27.17;17.08;;;;;;;-0.13;73.81;96024.50;5015789;28;20061;-83
2023/12/08 02:31:30;;;;;;;25.35;16.38;;;;;;;-0.11;74.25;96016.66;5015146;28;20077;-83
2023/12/08 02:33:57;;;;;;;;;;;;;;;-0.08;74.86;96014.66;5015621;28;20050;-82
2023/12/08 02:36:26;;;;;;;24.75;14.70;;;;;;;-0.08;73.40;96001.84;5014735;28;19945;-83
2023/12/08 02:38:55;;;;;;;24.77;14.90;;;;;;;-0.11;72.70;95989.31;5014471;28;20069;-82
2023/12/08 02:41:25;;;;;;;26.90;16.08;;;;;;;-0.17;72.68;95953.94;5014990;28;20092;-82
2023/12/08 02:43:53;;;;;;;24.23;15.98;;;;;;;-0.21;73.18;95947.44;5014405;28;20472;-83
2023/12/08 02:46:20;;;;;;;28.05;15.60;;;;;;;-0.20;72.73;95987.50;5014480;28;20107;-82
2023/12/08 02:48:48;;;;;;;24.27;15.10;;;;;;;-0.19;72.49;96030.16;5013311;28;20089;-82
2023/12/08 02:51:21;;;;;;;27.65;16.92;;;;;;;-0.18;72.90;96016.38;5014434;28;20062;-83
2023/12/08 02:53:49;;;;;;;28.83;16.48;;;;;;;-0.17;72.94;96042.84;5014532;28;20050;-81
2023/12/08 02:56:17;;;;;;;31.05;16.27;;;;;;;-0.17;72.42;96060.78;5013823;28;20596;-83
2023/12/08 02:58:46;;;;;;;26.88;16.63;;;;;;;-0.20;72.44;96038.75;5014927;28;20058;-83
2023/12/08 03:01:14;;;;;;;29.02;17.67;;;;;;;-0.20;73.45;96041.31;5016267;28;20042;-82
2023/12/08 03:03:42;;;;;;;27.73;16.92;;;;;;;-0.19;73.47;96050.66;5017280;28;20054;-83
2023/12/08 03:06:10;;;;;;;30.15;17.92;;;;;;;-0.19;73.10;96042.97;5016389;28;20425;-83
2023/12/08 03:08:37;;;;;;;26.95;16.25;;;;;;;-0.21;73.06;96048.22;5014184;28;20105;-81
2023/12/08 03:11:05;;;;;;;25.00;16.42;;;;;;;-0.24;72.66;96043.34;5013614;28;20108;-83
2023/12/08 03:13:33;;;;;;;30.17;18.58;;;;;;;-0.24;73.00;96073.28;5014013;28;20054;-83
2023/12/08 03:16:02;;;;;;;26.52;15.32;;;;;;;-0.21;73.04;96070.47;5014065;28;20080;-83
2023/12/08 03:18:29;;;;;;;27.95;16.02;;;;;;;-0.21;73.25;96053.34;5014016;28;20042;-82
2023/12/08 03:20:57;;;;;;;26.35;15.88;;;;;;;-0.22;72.86;96056.03;5014506;28;20089;-82
2023/12/08 03:23:25;;;;;;;32.10;17.15;;;;;;;-0.27;73.07;96042.78;5014079;28;20050;-83
2023/12/08 03:25:52;;;;;;;28.98;16.75;;;;;;;-0.29;73.09;96048.03;5013937;28;20133;-82
2023/12/08 03:28:20;;;;;;;27.90;16.90;;;;;;;-0.28;72.93;96041.19;5014280;28;20077;-82
2023/12/08 03:30:47;;;;;;;27.90;16.30;;;;;;;-0.29;72.89;96029.28;5014819;28;20609;-83
2023/12/08 03:33:16;;;;;;;24.75;15.10;;;;;;;-0.32;73.12;96039.81;5015498;28;20481;-83
2023/12/08 03:35:44;;;;;;;23.85;14.73;;;;;;;-0.36;73.00;96036.69;5015283;28;20428;-82
2023/12/08 03:38:12;;;;;;;27.10;15.70;;;;;;;-0.43;72.62;96031.25;5015077;28;20049;-82
2023/12/08 03:40:39;;;;;;;25.58;15.52;;;;;;;-0.45;73.07;96022.88;5014783;28;20096;-83
2023/12/08 03:43:07;;;;;;;28.25;16.48;;;;;;;-0.45;73.35;96011.81;5013136;28;20576;-82
2023/12/08 03:45:35;;;;;;;25.67;15.68;;;;;;;-0.43;73.00;96028.69;5013069;28;20081;-82
2023/12/08 03:48:02;;;;;;;29.85;16.60;;;;;;;-0.38;73.36;96020.63;5013340;28;20100;-82
2023/12/08 03:50:31;;;;;;;27.35;15.45;;;;;;;-0.32;73.42;96019.31;5014184;28;20050;-82
2023/12/08 03:52:59;;;;;;;26.08;16.73;;;;;;;-0.29;73.41;96030.09;5014730;28;20085;-83
2023/12/08 03:55:27;;;;;;;27.67;17.20;;;;;;;-0.24;73.78;96022.00;5015166;28;20112;-83
2023/12/08 03:57:54;;;;;;;27.10;16.40;;;;;;;-0.22;73.43;96035.50;5014047;28;20529;-82
2023/12/08 04:00:22;;;;;;;30.02;17.20;;;;;;;-0.25;73.27;96035.78;5015532;28;20469;-82
2023/12/08 04:02:50;;;;;;;27.15;16.10;;;;;;;-0.25;73.33;96028.09;5018135;28;20062;-83
2023/12/08 04:05:18;;;;;;;27.38;16.83;;;;;;;-0.25;73.23;96035.78;5018052;28;20096;-83
2023/12/08 04:07:47;;;;;;;29.63;17.20;;;;;;;-0.25;73.78;96022.97;5017756;28;20056;-83
2023/12/08 04:10:14;;;;;;;29.98;17.67;;;;;;;-0.23;74.10;96026.22;5018016;28;20560;-83
2023/12/08 04:12:42;;;;;;;25.30;16.30;;;;;;;-0.23;73.43;96028.78;5018641;28;20213;-83
2023/12/08 04:15:10;;;;;;;27.65;16.05;;;;;;;-0.24;73.25;96022.00;5018702;28;20058;-83
2023/12/08 04:17:38;;;;;;;27.20;16.42;;;;;;;-0.24;73.89;96033.09;5017508;28;20260;-83
2023/12/08 04:20:06;;;;;;;27.85;16.63;;;;;;;-0.27;73.40;96006.91;5018002;28;20054;-83
2023/12/08 04:22:34;;;;;;;30.25;17.08;;;;;;;-0.30;73.37;95996.91;5018106;28;20056;-83
2023/12/08 04:25:03;;;;;;;37.53;19.42;;;;;;;-0.35;73.36;95993.91;5017130;28;20053;-83
2023/12/08 04:27:31;;;;;;;29.50;17.73;;;;;;;-0.35;73.56;96022.09;5016886;28;20050;-82
2023/12/08 04:29:58;;;;;;;31.02;17.98;;;;;;;-0.31;74.08;96026.03;5016674;28;20057;-82
2023/12/08 04:32:26;;;;;;;29.35;18.02;;;;;;;-0.27;73.83;96017.16;5016798;28;20058;-83
2023/12/08 04:34:57;;;;;;;28.77;16.63;;;;;;;-0.32;73.27;96027.00;5017352;28;20050;-83
2023/12/08 04:37:25;;;;;;;27.90;18.00;;;;;;;-0.36;73.67;96017.94;5016161;28;20514;-82
2023/12/08 04:39:53;;;;;;;26.73;17.90;;;;;;;-0.37;73.84;96021.41;5016955;28;20093;-82
2023/12/08 04:42:22;;;;;;;26.10;16.52;;;;;;;-0.36;74.03;96017.94;5017073;28;20399;-82
2023/12/08 04:44:50;;;;;;;30.92;17.70;;;;;;;-0.35;74.03;96019.53;5017190;28;20070;-83
2023/12/08 04:47:17;;;;;;;29.42;15.75;;;;;;;-0.36;74.00;96018.75;5016760;28;20060;-83
2023/12/08 04:49:45;;;;;;;29.88;16.75;;;;;;;-0.34;74.22;96031.44;5017315;28;20078;-83
2023/12/08 04:52:13;;;;;;;29.73;18.30;;;;;;;-0.34;74.13;96026.31;5017379;28;20077;-82
2023/12/08 04:54:40;;;;;;;32.85;18.77;;;;;;;-0.36;74.01;96028.19;5017407;28;20127;-83
2023/12/08 04:57:08;;;;;;;27.95;17.58;;;;;;;-0.39;73.84;96039.50;5015475;28;20041;-82
2023/12/08 04:59:38;;;;;;;30.27;18.67;;;;;;;-0.40;74.75;96037.06;5008997;28;20049;-83
2023/12/08 05:02:06;;;;;;;28.33;17.17;;;;;;;-0.39;74.44;96048.91;5025579;28;20052;-82
2023/12/08 05:04:33;;;;;;;27.50;17.48;;;;;;;-0.39;74.21;96056.59;5036196;28;20050;-83
2023/12/08 05:07:01;;;;;;;27.20;16.48;;;;;;;-0.38;74.29;96065.94;5037108;28;20135;-83
2023/12/08 05:09:28;;;;;;;28.77;17.33;;;;;;;-0.35;74.45;96081.03;5036374;28;20463;-83
2023/12/08 05:11:56;;;;;;;29.27;16.98;;;;;;;-0.35;74.42;96068.22;5034322;28;20495;-83
2023/12/08 05:14:24;;;;;;;34.22;17.85;;;;;;;-0.35;74.47;96070.78;5011105;28;20421;-83
2023/12/08 05:16:52;;;;;;;30.85;18.15;;;;;;;-0.33;74.97;96074.03;5014802;28;20120;-83
2023/12/08 05:19:20;;;;;;;29.10;17.77;;;;;;;-0.31;74.52;96078.09;5015800;28;20060;-83
2023/12/08 05:21:48;;;;;;;26.35;17.25;;;;;;;-0.30;73.92;96074.63;5016312;28;20046;-83
2023/12/08 05:24:16;;;;;;;28.63;17.52;;;;;;;-0.31;73.99;96078.09;5015434;28;20129;-83
2023/12/08 05:26:44;;;;;;;28.02;17.02;;;;;;;-0.30;73.91;96084.06;5015681;28;20046;-83
2023/12/08 05:29:15;;;;;;;30.50;18.45;;;;;;;-0.31;73.71;96075.53;5005156;28;20034;-85
2023/12/08 05:31:51;;;;;;;26.25;16.30;;;;;;;-0.31;73.70;96085.78;5155332;22;20030;-79
2023/12/08 05:37:19;;;;;;;28.63;18.17;;;;;;;-0.30;75.69;96084.06;5056205;22;20085;-84
2023/12/08 05:50:48;;;;;;;29.50;18.27;;;;;;;-0.25;73.98;96079.34;3285598;22;20053;-82
2023/12/08 05:53:17;;;;;;;27.58;16.98;;;;;;;-0.25;73.86;96087.84;5042238;28;20051;-82
2023/12/08 05:55:45;;;;;;;31.48;18.20;;;;;;;-0.25;73.63;96076.78;5021901;28;20140;-81
2023/12/08 05:58:12;;;;;;;30.73;17.98;;;;;;;-0.26;73.61;96063.16;5026275;28;20099;-82
2023/12/08 06:00:41;;;;;;;28.77;17.67;;;;;;;-0.27;73.37;96066.66;5014662;28;20053;-81
2023/12/08 06:03:09;;;;;;;28.30;17.52;;;;;;;-0.26;73.64;96075.19;5025344;28;20053;-80
2023/12/08 06:05:39;;;;;;;31.35;18.92;;;;;;;-0.26;73.75;96078.53;5023538;28;20042;-81
2023/12/08 06:08:07;;;;;;;31.88;18.95;;;;;;;-0.26;73.84;96078.53;5014208;28;20128;-82
2023/12/08 06:10:36;;;;;;;30.63;19.08;;;;;;;-0.26;73.83;96080.31;5014481;28;20464;-81
2023/12/08 06:13:03;;;;;;;30.52;17.65;;;;;;;-0.27;73.80;96081.22;5015282;28;20049;-82
2023/12/08 06:15:31;;;;;;;32.78;18.65;;;;;;;-0.26;74.06;96070.06;5017252;28;20081;-82
2023/12/08 06:17:59;;;;;;;30.92;18.50;;;;;;;-0.23;74.44;96067.22;5018012;28;20521;-82
2023/12/08 06:20:27;;;;;;;33.92;20.30;;;;;;;-0.18;75.36;96077.09;5017376;28;20104;-82
2023/12/08 06:22:54;;;;;;;34.00;20.02;;;;;;;-0.15;75.70;96064.84;5014737;28;20054;-82
2023/12/08 06:25:22;;;;;;;34.15;18.65;;;;;;;-0.14;74.68;96052.81;5014709;28;20088;-81
2023/12/08 06:27:51;;;;;;;27.33;17.20;;;;;;;-0.13;74.34;96051.88;5014798;28;20465;-82
2023/12/08 06:30:19;;;;;;;33.75;18.33;;;;;;;-0.10;74.57;96054.19;5016794;28;20080;-82
2023/12/08 06:32:46;;;;;;;30.05;18.38;;;;;;;-0.07;74.46;96043.66;5015412;28;20054;-81
2023/12/08 06:35:14;;;;;;;30.25;17.85;;;;;;;-0.06;74.33;96041.00;5015675;28;20064;-82
2023/12/08 06:37:43;;;;;;;30.50;18.35;;;;;;;-0.03;74.30;96043.28;5015446;28;20049;-82
2023/12/08 06:40:11;;;;;;;31.90;19.15;;;;;;;-0.01;74.05;96033.72;5014272;28;20045;-81
2023/12/08 06:42:39;;;;;;;30.50;18.98;;;;;;;0.01;73.93;96043.84;5016092;28;20105;-81
2023/12/08 06:45:09;;;;;;;28.60;17.55;;;;;;;0.06;74.97;96063.97;5015287;28;20104;-81
2023/12/08 06:47:37;;;;;;;31.10;18.05;;;;;;;0.08;74.05;96056.94;5015533;28;20140;-82
2023/12/08 06:50:06;;;;;;;33.42;19.30;;;;;;;0.08;74.04;96085.16;5016168;28;20481;-81
2023/12/08 06:52:33;;;;;;;37.85;21.45;;;;;;;0.09;74.77;96089.34;5014655;28;20050;-81
2023/12/08 06:55:01;;;;;;;34.83;20.70;;;;;;;0.09;74.95;96073.94;5015887;28;20115;-82
2023/12/08 06:57:29;;;;;;;35.33;20.63;;;;;;;0.10;74.49;96083.28;5015435;28;20050;-82
2023/12/08 06:59:57;;;;;;;33.35;20.63;;;;;;;0.09;75.37;96094.47;5014576;28;20046;-81
2023/12/08 07:02:27;;;;;;;37.22;21.73;;;;;;;0.06;75.55;96089.59;5015336;28;20111;-82
2023/12/08 07:04:55;;;;;;;34.03;21.95;;;;;;;-0.07;75.22;96077.00;5015245;28;20050;-81
2023/12/08 07:07:23;;;;;;;36.40;21.40;;;;;;;-0.21;74.81;96093.53;5013972;28;20053;-82
2023/12/08 07:09:51;;;;;;;40.25;22.73;;;;;;;-0.29;76.17;96083.91;5015556;28;20399;-81
2023/12/08 07:12:18;;;;;;;42.70;22.88;;;;;;;-0.32;76.62;96080.81;5016319;28;20057;-82
2023/12/08 07:14:46;;;;;;;36.30;21.85;;;;;;;-0.36;76.73;96080.25;5014898;28;20046;-82
2023/12/08 07:17:14;;;;;;;39.25;21.70;;;;;;;-0.34;77.73;96069.88;5014916;28;20572;-82
2023/12/08 07:19:43;;;;;;;40.70;22.95;;;;;;;-0.28;79.33;96080.44;5014754;28;20050;-82
2023/12/08 07:22:11;;;;;;;40.67;23.65;;;;;;;-0.24;78.69;96093.78;5014605;28;20325;-82
2023/12/08 07:24:40;;;;;;;43.40;24.48;;;;;;;-0.21;79.47;96078.97;5015329;28;20046;-82
2023/12/08 07:27:08;;;;;;;43.20;23.88;;;;;;;-0.16;79.69;96080.34;5014929;28;20048;-81
2023/12/08 07:29:35;;;;;;;44.05;25.40;;;;;;;-0.14;79.86;96088.72;5015038;28;20417;-82
2023/12/08 07:32:04;;;;;;;45.75;25.25;;;;;;;-0.14;80.10;96094.66;5015228;28;20050;-81
2023/12/08 07:34:31;;;;;;;43.28;25.92;;;;;;;-0.12;79.68;96107.34;5016771;28;20076;-81
2023/12/08 07:37:01;;;;;;;41.78;24.75;;;;;;;-0.12;80.51;96108.16;5019633;28;20112;-82
2023/12/08 07:39:28;;;;;;;42.60;23.08;;;;;;;-0.07;80.13;96087.25;5019170;28;20046;-82
2023/12/08 07:41:56;;;;;;;37.80;22.70;;;;;;;-0.08;79.32;96078.75;5019733;28;20080;-81
2023/12/08 07:44:24;;;;;;;38.70;23.75;;;;;;;-0.06;79.03;96076.88;5020409;28;20140;-81
2023/12/08 07:46:51;;;;;;;40.08;23.52;;;;;;;-0.08;78.91;96077.97;5018120;28;20050;-82
2023/12/08 07:49:20;;;;;;;46.08;27.08;;;;;;;-0.10;79.58;96070.38;5018202;28;20045;-81
2023/12/08 07:51:48;;;;;;;44.17;23.85;;;;;;;-0.08;80.25;96073.63;5018086;28;20053;-82
2023/12/08 07:54:17;;;;;;;47.10;25.27;;;;;;;-0.07;80.29;96075.25;5018965;28;20049;-82
2023/12/08 07:56:44;;;;;;;46.58;25.88;;;;;;;-0.03;80.34;96089.44;5019041;28;20049;-81
2023/12/08 07:59:12;;;;;;;42.45;24.55;;;;;;;-0.02;80.38;96087.69;5019286;28;20484;-81
2023/12/08 08:01:40;;;;;;;45.28;25.20;;;;;;;-0.02;80.18;96087.69;5031671;28;20030;-80
2023/12/08 08:04:08;;;;;;;47.67;25.30;;;;;;;-0.01;80.57;96087.56;5038945;28;20053;-81
2023/12/08 08:06:36;;;;;;;42.65;23.92;;;;;;;0.03;80.76;96084.75;5038648;28;20064;-80
2023/12/08 08:09:04;;;;;;;47.28;26.50;;;;;;;0.05;81.14;96077.75;5019650;28;20054;-82
2023/12/08 08:11:33;;;;;;;43.30;24.92;;;;;;;0.07;80.34;96079.22;5018464;28;20499;-81
2023/12/08 08:14:01;;;;;;;43.75;26.20;;;;;;;0.07;80.69;96076.66;5019019;28;20080;-81
2023/12/08 08:16:28;;;;;;;41.83;24.63;;;;;;;0.11;80.86;96087.47;5017361;28;20073;-82
2023/12/08 08:18:56;;;;;;;37.38;21.17;;;;;;;0.14;81.14;96084.66;5017467;28;20053;-81
2023/12/08 08:21:24;;;;;;;43.33;23.52;;;;;;;0.20;82.07;96095.19;5018590;28;20042;-81
2023/12/08 08:23:51;;;;;;;43.58;24.13;;;;;;;0.28;82.31;96089.41;5018824;28;20057;-82
2023/12/08 08:26:19;;;;;;;43.13;24.85;;;;;;;0.31;81.93;96078.09;5019358;28;20468;-81
2023/12/08 08:28:48;;;;;;;38.75;23.42;;;;;;;0.35;82.25;96079.44;5017775;28;20096;-81
2023/12/08 08:31:18;;;;;;;39.20;22.38;;;;;;;0.40;81.86;96079.88;5019879;28;20077;-81
2023/12/08 08:33:46;;;;;;;37.90;22.15;;;;;;;0.46;81.90;96078.50;5019330;28;20050;-82
2023/12/08 08:36:14;;;;;;;40.08;21.75;;;;;;;0.51;81.80;96069.50;5018421;28;20250;-82
2023/12/08 08:38:41;;;;;;;37.70;22.48;;;;;;;0.57;82.31;96070.72;5017984;28;20053;-82
2023/12/08 08:41:09;;;;;;;39.22;23.08;;;;;;;0.63;82.84;96061.66;5018420;28;20052;-82
2023/12/08 08:43:38;;;;;;;35.60;21.45;;;;;;;0.71;82.89;96062.63;5017949;28;20088;-82
2023/12/08 08:46:07;;;;;;;37.65;21.98;;;;;;;0.78;82.94;96060.34;5015609;28;20474;-81
2023/12/08 08:48:35;;;;;;;34.63;21.58;;;;;;;0.86;82.92;96064.81;5017063;28;20054;-82
2023/12/08 08:51:03;;;;;;;36.42;21.50;;;;;;;0.94;83.35;96063.19;5016601;28;20116;-82
2023/12/08 08:53:31;;;;;;;29.55;17.42;;;;;;;1.05;84.31;96062.25;5017282;28;20128;-82
2023/12/08 08:55:59;;;;;;;32.22;18.08;;;;;;;1.18;85.13;96055.06;5016056;28;20054;-82
2023/12/08 08:58:26;;;;;;;22.73;13.70;;;;;;;1.32;86.13;96058.97;5015956;28;20136;-81
2023/12/08 09:00:54;;;;;;;21.73;12.52;;;;;;;1.51;87.34;96060.69;5015971;28;20080;-82
2023/12/08 09:03:23;;;;;;;26.20;15.77;;;;;;;1.68;87.02;96069.44;5017839;28;20049;-82
2023/12/08 09:05:51;;;;;;;35.45;20.77;;;;;;;1.79;86.72;96065.88;5017461;28;20046;-82
2023/12/08 09:08:18;;;;;;;35.30;19.95;;;;;;;1.81;86.13;96067.38;5016845;28;20127;-82
2023/12/08 09:10:46;;;;;;;34.20;19.65;;;;;;;1.83;85.43;96062.91;5019431;28;20046;-81
2023/12/08 09:13:15;;;;;;;32.40;18.85;;;;;;;1.90;85.92;96067.47;5016642;28;20117;-82
2023/12/08 09:15:43;;;;;;;33.80;19.00;;;;;;;1.96;85.86;96062.59;5015656;28;20088;-82
2023/12/08 09:18:11;;;;;;;26.33;16.90;;;;;;;2.05;86.74;96069.44;5017332;28;20053;-82
2023/12/08 09:20:40;;;;;;;24.40;15.30;;;;;;;2.16;86.80;96062.50;5015900;28;20049;-82
2023/12/08 09:23:08;;;;;;;28.10;16.17;;;;;;;2.24;86.52;96057.47;5017180;28;20119;-82
2023/12/08 09:25:38;;;;;;;27.63;17.42;;;;;;;2.32;86.74;96057.56;5017143;28;20065;-82
2023/12/08 09:28:06;;;;;;;30.27;18.30;;;;;;;2.39;86.34;96062.94;5016969;28;20073;-82
2023/12/08 09:30:34;;;;;;;30.73;19.70;;;;;;;2.42;86.21;96060.88;5016356;28;20410;-82
2023/12/08 09:33:02;;;;;;;30.23;18.42;;;;;;;2.45;85.71;96058.03;5016204;28;20054;-81
2023/12/08 09:35:31;;;;;;;31.65;19.30;;;;;;;2.48;85.71;96062.88;5017106;28;20073;-82
2023/12/08 09:40:32;;;;;;;27.02;16.60;;;;;;;2.61;85.97;96072.84;4956134;29;20051;-82
2023/12/08 09:43:07;;;;;;;32.30;18.45;;;;;;;2.66;86.04;96074.97;4959546;29;20494;-82
2023/12/08 09:45:36;;;;;;;29.30;18.33;;;;;;;2.71;85.85;96072.75;4958588;29;20051;-81
2023/12/08 09:48:06;;;;;;;32.03;18.60;;;;;;;2.75;85.23;96076.66;4959980;28;20051;-82
2023/12/08 09:50:35;;;;;;;29.88;19.10;;;;;;;2.79;85.09;96074.63;4960035;29;20066;-82
2023/12/08 09:53:04;;;;;;;30.63;19.17;;;;;;;2.80;85.26;96068.50;4960093;29;20058;-81
2023/12/08 09:55:34;;;;;;;30.50;19.75;;;;;;;2.81;85.56;96067.56;4959994;29;20047;-82
2023/12/08 09:58:02;;;;;;;30.98;19.40;;;;;;;2.84;85.55;96077.56;4959228;28;20079;-82
2023/12/08 10:00:32;;;;;;;33.35;18.73;;;;;;;2.87;85.74;96078.09;4959946;29;20050;-82
2023/12/08 10:03:00;;;;;;;28.40;18.70;;;;;;;2.89;85.35;96081.31;4960100;29;20114;-82
2023/12/08 10:05:28;;;;;;;30.30;19.60;;;;;;;2.91;85.50;96080.34;4958041;29;20058;-82
2023/12/08 10:07:57;;;;;;;31.08;20.30;;;;;;;2.94;85.93;96082.66;4957942;28;20047;-82
2023/12/08 10:10:25;;;;;;;29.65;17.88;;;;;;;2.98;85.80;96084.78;4957457;29;20114;-82
2023/12/08 10:12:54;;;;;;;29.20;18.45;;;;;;;3.03;86.09;96089.50;4959562;29;20044;-82
2023/12/08 10:15:22;;;;;;;28.15;18.90;;;;;;;3.06;85.74;96076.31;4957786;29;20051;-82
2023/12/08 10:17:51;;;;;;;28.98;18.70;;;;;;;3.06;85.83;96071.97;4961884;28;20051;-82
2023/12/08 10:20:24;;;;;;;30.08;18.25;;;;;;;3.09;86.01;96070.88;4958163;29;20062;-82
2023/12/08 10:22:53;;;;;;;29.33;17.88;;;;;;;3.11;85.94;96074.13;4959843;29;20055;-82
2023/12/08 10:25:22;;;;;;;31.92;17.77;;;;;;;3.12;85.98;96073.13;4959390;29;20047;-82
2023/12/08 10:27:55;;;;;;;27.45;17.42;;;;;;;3.17;86.69;96073.53;4960039;28;20610;-82
2023/12/08 10:30:27;;;;;;;28.83;18.27;;;;;;;3.21;86.39;96079.19;4959049;29;20055;-82
2023/12/08 10:32:55;;;;;;;28.80;17.05;;;;;;;3.24;86.27;96069.38;4957703;29;20051;-82
2023/12/08 10:35:24;;;;;;;25.70;16.50;;;;;;;3.26;86.33;96069.25;4958896;29;20058;-82
2023/12/08 10:37:52;;;;;;;22.83;14.18;;;;;;;3.29;86.72;96071.50;4959147;28;20074;-82
2023/12/08 10:40:21;;;;;;;26.90;16.33;;;;;;;3.32;86.82;96062.66;4957575;29;20051;-82
2023/12/08 10:42:49;;;;;;;27.63;16.58;;;;;;;3.36;86.76;96053.69;4959998;29;20051;-82
2023/12/08 10:45:18;;;;;;;24.92;15.38;;;;;;;3.38;86.81;96060.31;4956866;29;20055;-82
2023/12/08 10:47:49;;;;;;;24.77;15.95;;;;;;;3.39;86.65;96054.19;4958137;28;20071;-82
2023/12/08 10:50:18;;;;;;;23.70;14.52;;;;;;;3.44;86.92;96064.06;4958775;29;20047;-81
2023/12/08 10:52:47;;;;;;;24.48;16.45;;;;;;;3.47;87.20;96059.41;4958544;29;20043;-81
2023/12/08 10:55:15;;;;;;;23.80;16.38;;;;;;;3.54;87.28;96061.38;4958464;29;20500;-82
2023/12/08 10:57:47;;;;;;;27.98;17.45;;;;;;;3.58;87.72;96057.53;4956649;28;20533;-82
2023/12/08 11:00:17;;;;;;;16.75;10.80;;;;;;;3.62;87.41;96057.06;4958961;29;20420;-82
2023/12/08 11:02:48;;;;;;;20.92;13.45;;;;;;;3.68;87.68;96056.47;4956664;29;20086;-82
2023/12/08 11:05:25;;;;;;;27.85;15.05;;;;;;;3.73;88.03;96058.59;4958469;29;20130;-82
2023/12/08 11:07:54;;;;;;;19.40;11.75;;;;;;;3.78;87.56;96065.88;4957120;28;20071;-82
2023/12/08 11:10:24;;;;;;;20.35;12.82;;;;;;;3.82;87.53;96057.69;4960793;28;20055;-82
2023/12/08 11:12:56;;;;;;;19.98;12.30;;;;;;;3.85;87.68;96056.59;4960894;29;20087;-82
2023/12/08 11:15:24;;;;;;;19.90;12.10;;;;;;;3.87;87.59;96054.63;4962479;29;20114;-82
2023/12/08 11:18:02;;;;;;;17.60;10.57;;;;;;;3.89;87.73;96058.72;4960543;28;20047;-82
2023/12/08 11:20:31;;;;;;;23.80;14.68;;;;;;;3.91;87.67;96050.78;4960613;29;20055;-82
2023/12/08 11:22:59;;;;;;;21.92;14.88;;;;;;;3.90;87.35;96049.19;4962735;29;20495;-82
2023/12/08 11:25:31;;;;;;;21.20;12.55;;;;;;;3.90;87.37;96054.34;4962552;29;20515;-82
2023/12/08 11:28:06;;;;;;;18.27;12.77;;;;;;;3.90;87.54;96049.19;4962409;28;20047;-82
2023/12/08 11:30:41;;;;;;;16.20;11.75;;;;;;;3.91;87.68;96050.78;4960848;29;20459;-82
2023/12/08 11:33:20;;;;;;;14.52;10.40;;;;;;;3.95;87.79;96046.13;4963431;29;20051;-82
2023/12/08 11:35:50;;;;;;;18.52;11.13;;;;;;;3.97;87.63;96050.19;4961609;29;20071;-81
2023/12/08 11:38:27;;;;;;;16.20;11.38;;;;;;;4.01;87.92;96054.06;4963320;28;20058;-82
2023/12/08 11:40:55;;;;;;;16.70;10.52;;;;;;;4.05;87.36;96047.66;4963120;29;20051;-82
2023/12/08 11:43:23;;;;;;;14.73;10.45;;;;;;;4.09;87.79;96043.78;4960945;29;20419;-82